createdAt,value
2019-05-16T00:01:02.320Z,79.94
2019-05-16T00:03:38.297Z,80.45
2019-05-16T00:06:11.453Z,80.45
2019-05-16T00:08:44.252Z,80.64
2019-05-16T00:11:18.015Z,80.87
2019-05-16T00:13:53.555Z,80.97
2019-05-16T00:16:30.065Z,80.35
2019-05-16T00:19:03.986Z,79.66
2019-05-16T00:21:38.231Z,79.87
2019-05-16T00:24:11.054Z,79.99
2019-05-16T00:26:45.087Z,79.95
2019-05-16T00:29:18.410Z,80.03
2019-05-16T00:31:51.387Z,80.47
2019-05-16T00:34:24.323Z,80.90
2019-05-16T00:36:58.303Z,80.80
2019-05-16T00:39:29.840Z,80.98
2019-05-16T00:42:01.798Z,81.28
2019-05-16T00:44:35.236Z,81.16
2019-05-16T00:47:08.807Z,81.03
2019-05-16T00:49:42.488Z,81.02
2019-05-16T00:52:18.418Z,81.02
2019-05-16T00:54:50.534Z,81.17
2019-05-16T00:57:28.104Z,80.94
2019-05-16T00:59:59.222Z,80.99
2019-05-16T01:02:52.844Z,80.66
2019-05-16T01:05:24.720Z,80.63
2019-05-16T01:07:58.444Z,80.51
2019-05-16T01:10:33.290Z,80.58
2019-05-16T01:13:27.852Z,80.58
2019-05-16T01:16:01.366Z,80.33
2019-05-16T01:18:33.927Z,80.70
2019-05-16T01:21:28.567Z,80.48
2019-05-16T01:24:01.406Z,80.41
2019-05-16T01:26:35.143Z,80.39
2019-05-16T01:29:08.251Z,80.02
2019-05-16T01:31:43.729Z,79.76
2019-05-16T01:34:18.110Z,79.82
2019-05-16T01:36:52.835Z,78.71
2019-05-16T01:39:28.754Z,78.24
2019-05-16T01:42:00.758Z,78.42
2019-05-16T01:44:32.665Z,78.75
2019-05-16T01:47:08.990Z,78.76
2019-05-16T01:49:42.287Z,78.43
2019-05-16T01:52:14.299Z,78.89
2019-05-16T01:54:48.505Z,78.78
2019-05-16T01:57:20.710Z,79.11
2019-05-16T01:59:58.748Z,78.82
2019-05-16T02:02:28.952Z,78.56
2019-05-16T02:05:00.855Z,79.00
2019-05-16T02:07:33.866Z,79.69
2019-05-16T02:10:10.607Z,79.71
2019-05-16T02:13:02.934Z,80.09
2019-05-16T02:15:38.305Z,80.18
2019-05-16T02:18:12.524Z,80.15
2019-05-16T02:21:07.935Z,80.18
2019-05-16T02:24:02.213Z,80.02
2019-05-16T02:26:34.624Z,80.10
2019-05-16T02:29:06.378Z,80.25
2019-05-16T02:31:42.221Z,80.30
2019-05-16T02:34:16.285Z,80.78
2019-05-16T02:37:10.294Z,81.00
2019-05-16T02:39:23.961Z,81.11
2019-05-16T02:41:56.121Z,81.33
2019-05-16T02:44:31.897Z,81.59
2019-05-16T02:47:05.457Z,81.63
2019-05-16T02:49:41.626Z,81.54
2019-05-16T02:52:12.591Z,81.49
2019-05-16T02:54:45.860Z,81.55
2019-05-16T02:57:21.077Z,81.87
2019-05-16T02:59:52.486Z,81.77
2019-05-16T03:02:24.900Z,81.13
2019-05-16T03:05:01.029Z,81.24
2019-05-16T03:07:41.619Z,81.62
2019-05-16T03:10:11.193Z,81.83
2019-05-16T03:12:44.662Z,81.83
2019-05-16T03:15:16.800Z,81.97
2019-05-16T03:17:52.369Z,82.05
2019-05-16T03:20:31.318Z,82.03
2019-05-16T03:23:02.429Z,82.05
2019-05-16T03:25:34.327Z,82.27
2019-05-16T03:28:10.911Z,82.54
2019-05-16T03:30:44.706Z,82.87
2019-05-16T03:33:25.915Z,82.60
2019-05-16T03:35:54.690Z,82.71
2019-05-16T03:38:26.322Z,82.85
2019-05-16T03:41:01.037Z,83.12
2019-05-16T03:43:32.350Z,82.86
2019-05-16T03:46:04.389Z,82.68
2019-05-16T03:48:40.662Z,82.76
2019-05-16T03:51:12.611Z,83.18
2019-05-16T03:53:44.648Z,83.33
2019-05-16T03:56:16.761Z,83.27
2019-05-16T03:58:51.001Z,83.30
2019-05-16T04:01:22.359Z,83.24
2019-05-16T04:03:54.608Z,83.13
2019-05-16T04:06:27.414Z,83.26
2019-05-16T04:09:01.908Z,82.55
2019-05-16T04:11:34.703Z,81.23
2019-05-16T04:14:10.896Z,79.82
2019-05-16T04:16:43.143Z,79.06
2019-05-16T04:19:15.002Z,77.39
2019-05-16T04:21:50.839Z,75.51
2019-05-16T04:24:21.878Z,74.00
2019-05-16T04:26:53.805Z,73.41
2019-05-16T04:29:26.108Z,72.41
2019-05-16T04:32:01.169Z,72.61
2019-05-16T04:34:31.450Z,71.91
2019-05-16T04:37:03.208Z,70.71
2019-05-16T04:39:36.427Z,70.56
2019-05-16T04:42:10.834Z,70.77
2019-05-16T04:44:42.579Z,71.93
2019-05-16T04:47:14.202Z,70.82
2019-05-16T04:49:46.020Z,69.38
2019-05-16T04:52:17.769Z,69.92
2019-05-16T04:54:51.180Z,68.28
2019-05-16T04:57:23.689Z,67.54
2019-05-16T05:00:02.142Z,64.32
2019-05-16T05:02:34.144Z,63.78
2019-05-16T05:05:06.696Z,62.97
2019-05-16T05:07:40.650Z,64.74
2019-05-16T05:10:14.203Z,65.07
2019-05-16T05:12:47.351Z,64.44
2019-05-16T05:15:21.294Z,62.53
2019-05-16T05:17:54.525Z,62.03
2019-05-16T05:20:30.214Z,61.76
2019-05-16T05:23:04.749Z,62.88
2019-05-16T05:25:40.456Z,60.23
2019-05-16T05:28:13.686Z,58.64
2019-05-16T05:30:50.322Z,57.31
2019-05-16T05:33:23.078Z,56.67
2019-05-16T05:35:56.342Z,58.93
2019-05-16T05:38:32.514Z,58.11
2019-05-16T05:41:10.551Z,58.07
2019-05-16T05:43:42.203Z,58.33
2019-05-16T05:46:16.161Z,58.37
2019-05-16T05:48:50.552Z,58.52
2019-05-16T05:51:24.909Z,57.25
2019-05-16T05:53:56.605Z,55.71
2019-05-16T05:56:30.481Z,53.54
2019-05-16T05:59:05.212Z,53.28
2019-05-16T06:01:37.113Z,53.20
2019-05-16T06:04:10.835Z,50.98
2019-05-16T06:06:45.109Z,50.59
2019-05-16T06:09:28.410Z,50.14
2019-05-16T06:11:54.830Z,50.50
2019-05-16T06:14:26.318Z,49.48
2019-05-16T06:17:00.206Z,48.95
2019-05-16T06:19:32.412Z,48.31
2019-05-16T06:22:05.185Z,48.50
2019-05-16T06:24:39.911Z,48.57
2019-05-16T06:27:14.728Z,47.45
2019-05-16T06:29:46.155Z,47.37
2019-05-16T06:32:19.660Z,46.16
2019-05-16T06:34:51.597Z,45.18
2019-05-16T06:37:44.086Z,46.75
2019-05-16T06:40:16.233Z,45.21
2019-05-16T06:42:47.594Z,45.09
2019-05-16T06:45:20.524Z,44.97
2019-05-16T06:47:52.158Z,44.94
2019-05-16T06:50:25.197Z,43.06
2019-05-16T06:52:57.011Z,46.00
2019-05-16T06:55:29.629Z,46.86
2019-05-16T06:58:06.709Z,45.90
2019-05-16T07:00:40.574Z,44.90
2019-05-16T07:03:13.680Z,45.25
2019-05-16T07:05:47.177Z,43.48
2019-05-16T07:08:20.528Z,43.87
2019-05-16T07:11:04.904Z,42.71
2019-05-16T07:13:37.299Z,42.09
2019-05-16T07:16:11.944Z,41.08
2019-05-16T07:18:43.279Z,42.85
2019-05-16T07:21:19.997Z,40.36
2019-05-16T07:23:56.630Z,43.26
2019-05-16T07:26:30.918Z,43.18
2019-05-16T07:29:12.686Z,42.78
2019-05-16T07:31:43.800Z,43.45
2019-05-16T07:34:16.762Z,41.48
2019-05-16T07:36:50.186Z,40.13
2019-05-16T07:39:21.915Z,40.44
2019-05-16T07:41:53.118Z,40.08
2019-05-16T07:44:25.356Z,41.34
2019-05-16T07:47:01.008Z,39.21
2019-05-16T07:49:31.883Z,39.16
2019-05-16T07:52:05.671Z,40.33
2019-05-16T07:54:40.178Z,38.70
2019-05-16T07:57:19.168Z,38.80
2019-05-16T07:59:44.138Z,41.33
2019-05-16T08:02:15.534Z,40.77
2019-05-16T08:04:46.889Z,39.12
2019-05-16T08:07:20.054Z,38.00
2019-05-16T08:09:53.563Z,39.78
2019-05-16T08:12:26.400Z,36.50
2019-05-16T08:15:00.880Z,38.41
2019-05-16T08:17:33.732Z,36.78
2019-05-16T08:20:07.736Z,35.09
2019-05-16T08:22:41.562Z,36.29
2019-05-16T08:25:14.515Z,35.70
2019-05-16T08:27:46.206Z,37.16
2019-05-16T08:30:27.550Z,36.48
2019-05-16T08:33:02.740Z,36.57
2019-05-16T08:35:35.149Z,34.59
2019-05-16T08:38:07.683Z,34.21
2019-05-16T08:41:01.012Z,34.20
2019-05-16T08:43:14.179Z,34.54
2019-05-16T08:45:46.248Z,38.40
2019-05-16T08:48:22.370Z,37.83
2019-05-16T08:50:54.639Z,37.87
2019-05-16T08:53:24.041Z,37.33
2019-05-16T08:55:55.465Z,36.71
2019-05-16T08:58:26.982Z,37.80
2019-05-16T09:01:02.291Z,41.74
2019-05-16T09:03:32.874Z,37.75
2019-05-16T09:06:06.612Z,36.45
2019-05-16T09:08:38.701Z,35.47
2019-05-16T09:11:29.334Z,35.49
2019-05-16T09:13:44.183Z,35.12
2019-05-16T09:16:18.257Z,33.58
2019-05-16T09:18:51.084Z,36.38
2019-05-16T09:21:27.131Z,35.30
2019-05-16T09:23:57.951Z,36.94
2019-05-16T09:29:33.201Z,34.25
2019-05-16T09:32:15.281Z,35.19
2019-05-16T09:34:39.307Z,33.89
2019-05-16T09:37:10.836Z,36.96
2019-05-16T09:39:42.179Z,37.48
2019-05-16T09:42:13.397Z,36.12
2019-05-16T09:44:47.508Z,33.43
2019-05-16T09:47:18.171Z,33.88
2019-05-16T09:49:49.676Z,35.92
2019-05-16T09:52:21.264Z,36.95
2019-05-16T09:54:52.686Z,35.71
2019-05-16T09:57:24.123Z,36.35
2019-05-16T09:59:57.253Z,38.38
2019-05-16T10:02:28.871Z,37.18
2019-05-16T10:05:01.625Z,34.71
2019-05-16T10:07:33.311Z,34.54
2019-05-16T10:10:06.647Z,34.34
2019-05-16T10:12:52.911Z,39.31
2019-05-16T10:15:26.971Z,38.46
2019-05-16T10:17:59.165Z,38.71
2019-05-16T10:20:31.825Z,35.97
2019-05-16T10:23:08.452Z,35.63
2019-05-16T10:25:39.364Z,38.55
2019-05-16T10:28:12.095Z,36.63
2019-05-16T10:30:43.893Z,34.82
2019-05-16T10:33:18.881Z,35.19
2019-05-16T10:35:51.137Z,33.86
2019-05-16T10:38:28.091Z,34.25
2019-05-16T10:40:58.493Z,34.37
2019-05-16T10:43:31.855Z,36.02
2019-05-16T10:46:06.531Z,35.13
2019-05-16T10:48:39.253Z,36.99
2019-05-16T10:51:11.127Z,35.54
2019-05-16T10:54:02.379Z,34.69
2019-05-16T10:56:17.487Z,34.56
2019-05-16T10:59:24.888Z,35.57
2019-05-16T11:01:27.902Z,35.19
2019-05-16T11:03:56.820Z,38.34
2019-05-16T11:06:30.123Z,43.40
2019-05-16T11:09:01.469Z,41.19
2019-05-16T11:11:36.799Z,39.19
2019-05-16T11:14:09.504Z,35.43
2019-05-16T11:16:42.175Z,36.08
2019-05-16T11:19:21.310Z,34.91
2019-05-16T11:21:50.761Z,35.83
2019-05-16T11:24:23.479Z,35.45
2019-05-16T11:26:56.724Z,33.81
2019-05-16T11:29:28.538Z,32.89
2019-05-16T11:32:02.463Z,32.47
2019-05-16T11:34:33.699Z,32.85
2019-05-16T11:37:06.874Z,32.21
2019-05-16T11:39:37.990Z,35.58
2019-05-16T11:42:11.148Z,38.89
2019-05-16T11:44:47.792Z,41.15
2019-05-16T11:47:19.909Z,41.22
2019-05-16T11:49:51.094Z,39.12
2019-05-16T11:52:22.256Z,37.03
2019-05-16T11:54:53.608Z,39.55
2019-05-16T11:57:26.715Z,38.92
2019-05-16T11:59:58.184Z,37.61
2019-05-16T12:02:29.614Z,38.32
2019-05-16T12:05:04.455Z,38.76
2019-05-16T12:07:43.829Z,38.69
2019-05-16T12:10:12.052Z,36.33
2019-05-16T12:12:43.199Z,35.91
2019-05-16T12:15:19.700Z,36.61
2019-05-16T12:18:00.913Z,35.89
2019-05-16T12:20:23.028Z,36.13
2019-05-16T12:22:55.791Z,38.69
2019-05-16T12:25:27.398Z,37.55
2019-05-16T12:27:59.084Z,35.41
2019-05-16T12:30:31.911Z,36.11
2019-05-16T12:33:03.510Z,37.67
2019-05-16T12:35:36.956Z,37.93
2019-05-16T12:38:08.958Z,37.87
2019-05-16T12:40:41.044Z,36.43
2019-05-16T12:43:13.311Z,38.73
2019-05-16T12:45:47.128Z,37.97
2019-05-16T12:48:20.422Z,36.65
2019-05-16T12:50:50.609Z,37.96
2019-05-16T12:53:23.614Z,37.86
2019-05-16T12:55:56.785Z,38.61
2019-05-16T12:58:37.773Z,36.89
2019-05-16T13:01:03.205Z,37.33
2019-05-16T13:03:37.852Z,36.56
2019-05-16T13:06:12.466Z,39.82
2019-05-16T13:08:43.667Z,40.81
2019-05-16T13:11:17.737Z,37.82
2019-05-16T13:14:02.517Z,37.72
2019-05-16T13:16:23.603Z,37.68
2019-05-16T13:18:56.714Z,41.12
2019-05-16T13:21:28.441Z,40.59
2019-05-16T13:24:04.107Z,38.58
2019-05-16T13:26:37.337Z,40.86
2019-05-16T13:29:08.745Z,39.44
2019-05-16T13:31:41.113Z,37.47
2019-05-16T13:34:13.673Z,37.40
2019-05-16T13:36:47.343Z,36.64
2019-05-16T13:39:19.038Z,38.42
2019-05-16T13:41:52.234Z,38.76
2019-05-16T13:44:27.372Z,39.42
2019-05-16T13:46:59.746Z,39.36
2019-05-16T13:49:53.094Z,40.86
2019-05-16T13:52:28.006Z,40.96
2019-05-16T13:54:59.107Z,41.19
2019-05-16T13:57:30.825Z,41.81
2019-05-16T14:00:07.313Z,43.37
2019-05-16T14:02:40.912Z,42.28
2019-05-16T14:05:13.620Z,41.41
2019-05-16T14:07:48.056Z,41.77
2019-05-16T14:10:22.734Z,42.19
2019-05-16T14:12:54.842Z,43.81
2019-05-16T14:15:27.573Z,45.13
2019-05-16T14:17:59.070Z,44.83
2019-05-16T14:20:31.243Z,42.90
2019-05-16T14:23:08.058Z,43.93
2019-05-16T14:25:48.014Z,42.16
2019-05-16T14:28:23.383Z,42.17
2019-05-16T14:30:57.233Z,43.33
2019-05-16T14:33:28.144Z,44.70
2019-05-16T14:36:07.237Z,44.18
2019-05-16T14:38:40.236Z,43.58
2019-05-16T14:41:11.776Z,43.51
2019-05-16T14:43:43.653Z,44.15
2019-05-16T14:46:18.977Z,45.43
2019-05-16T14:48:53.885Z,44.38
2019-05-16T14:51:31.426Z,44.59
2019-05-16T14:54:00.873Z,45.57
2019-05-16T14:56:32.502Z,44.93
2019-05-16T14:59:08.178Z,45.89
2019-05-16T15:01:42.499Z,46.34
2019-05-16T15:04:15.002Z,45.63
2019-05-16T15:06:48.240Z,45.61
2019-05-16T15:09:19.637Z,44.82
2019-05-16T15:11:51.034Z,44.89
2019-05-16T15:14:22.594Z,43.33
2019-05-16T15:16:57.624Z,44.13
2019-05-16T15:19:31.937Z,44.97
2019-05-16T15:22:03.346Z,44.94
2019-05-16T15:24:36.909Z,44.91
2019-05-16T15:27:09.978Z,45.43
2019-05-16T15:29:43.436Z,44.89
2019-05-16T15:32:17.709Z,46.03
2019-05-16T15:34:52.189Z,45.48
2019-05-16T15:37:27.271Z,46.38
2019-05-16T15:39:57.809Z,46.59
2019-05-16T15:42:31.447Z,46.66
2019-05-16T15:45:03.348Z,45.06
2019-05-16T15:47:37.579Z,45.95
2019-05-16T15:50:13.084Z,47.36
2019-05-16T15:52:46.171Z,47.16
2019-05-16T15:55:19.729Z,47.86
2019-05-16T15:58:12.573Z,49.08
2019-05-16T16:00:48.890Z,48.73
2019-05-16T16:03:23.371Z,48.86
2019-05-16T16:05:56.452Z,48.16
2019-05-16T16:08:28.945Z,48.02
2019-05-16T16:11:00.412Z,48.65
2019-05-16T16:13:32.940Z,49.41
2019-05-16T16:16:09.197Z,49.55
2019-05-16T16:18:37.989Z,49.49
2019-05-16T16:21:10.541Z,50.42
2019-05-16T16:23:47.296Z,50.13
2019-05-16T16:26:20.613Z,51.19
2019-05-16T16:28:52.118Z,51.42
2019-05-16T16:31:27.274Z,51.22
2019-05-16T16:33:58.972Z,51.32
2019-05-16T16:36:31.696Z,52.06
2019-05-16T16:39:07.544Z,51.29
2019-05-16T16:41:41.378Z,51.09
2019-05-16T16:44:17.192Z,50.51
2019-05-16T16:46:49.200Z,52.28
2019-05-16T16:49:21.559Z,53.50
2019-05-16T16:51:52.938Z,53.65
2019-05-16T16:54:27.419Z,53.41
2019-05-16T16:56:58.406Z,53.95
2019-05-16T16:59:31.416Z,51.43
2019-05-16T17:02:02.712Z,52.17
2019-05-16T17:04:38.816Z,53.52
2019-05-16T17:07:10.970Z,52.59
2019-05-16T17:09:44.118Z,55.41
2019-05-16T17:12:16.845Z,54.63
2019-05-16T17:14:50.475Z,54.37
2019-05-16T17:17:22.013Z,54.40
2019-05-16T17:19:56.590Z,55.15
2019-05-16T17:22:27.629Z,55.12
2019-05-16T17:25:01.396Z,55.82
2019-05-16T17:27:37.687Z,55.43
2019-05-16T17:30:17.760Z,55.98
2019-05-16T17:32:51.124Z,56.70
2019-05-16T17:35:23.023Z,56.59
2019-05-16T17:37:54.485Z,57.89
2019-05-16T17:40:27.409Z,57.59
2019-05-16T17:43:00.523Z,57.48
2019-05-16T17:45:33.335Z,57.64
2019-05-16T17:48:06.884Z,57.78
2019-05-16T17:50:39.008Z,58.00
2019-05-16T17:53:10.694Z,58.60
2019-05-16T17:55:42.182Z,58.63
2019-05-16T17:58:16.458Z,58.55
2019-05-16T18:00:47.983Z,57.48
2019-05-16T18:03:19.737Z,58.10
2019-05-16T18:05:51.760Z,59.15
2019-05-16T18:08:24.979Z,58.52
2019-05-16T18:10:56.738Z,58.60
2019-05-16T18:13:29.117Z,58.92
2019-05-16T18:16:00.675Z,59.30
2019-05-16T18:18:31.947Z,59.77
2019-05-16T18:21:06.680Z,60.07
2019-05-16T18:23:37.780Z,59.31
2019-05-16T18:26:09.159Z,59.99
2019-05-16T18:28:41.230Z,60.02
2019-05-16T18:31:14.570Z,59.62
2019-05-16T18:33:46.019Z,59.76
2019-05-16T18:36:18.343Z,60.26
2019-05-16T18:38:50.116Z,59.68
2019-05-16T18:41:23.309Z,59.58
2019-05-16T18:43:56.481Z,59.35
2019-05-16T18:46:27.674Z,60.16
2019-05-16T18:48:59.671Z,60.88
2019-05-16T18:51:32.020Z,61.81
2019-05-16T18:54:03.890Z,61.48
2019-05-16T18:56:36.514Z,61.85
2019-05-16T18:59:08.578Z,62.03
2019-05-16T19:01:40.161Z,62.57
2019-05-16T19:04:13.431Z,62.36
2019-05-16T19:06:46.485Z,63.03
2019-05-16T19:09:18.818Z,63.52
2019-05-16T19:11:51.992Z,63.35
2019-05-16T19:14:23.410Z,63.28
2019-05-16T19:16:56.706Z,63.74
2019-05-16T19:19:30.159Z,64.54
2019-05-16T19:22:06.582Z,64.06
2019-05-16T19:24:42.289Z,62.30
2019-05-16T19:30:11.249Z,61.04
2019-05-16T19:33:01.961Z,59.92
2019-05-16T19:35:35.169Z,59.41
2019-05-16T19:38:08.653Z,58.76
2019-05-16T19:40:41.731Z,58.92
2019-05-16T19:43:13.081Z,58.36
2019-05-16T19:45:46.551Z,58.16
2019-05-16T19:48:18.335Z,58.00
2019-05-16T19:50:58.600Z,57.63
2019-05-16T19:53:31.186Z,57.49
2019-05-16T19:56:03.881Z,56.70
2019-05-16T19:58:37.194Z,57.02
2019-05-16T20:01:09.597Z,57.38
2019-05-16T20:03:42.280Z,57.15
2019-05-16T20:06:16.933Z,57.74
2019-05-16T20:11:41.589Z,58.37
2019-05-16T20:14:13.323Z,58.88
2019-05-16T20:16:47.157Z,59.10
2019-05-16T20:19:19.631Z,59.20
2019-05-16T20:21:51.269Z,60.75
2019-05-16T20:24:27.164Z,60.43
2019-05-16T20:27:10.857Z,60.27
2019-05-16T20:29:42.696Z,59.70
2019-05-16T20:32:16.842Z,58.82
2019-05-16T20:34:48.590Z,58.97
2019-05-16T20:37:21.724Z,58.73
2019-05-16T20:39:53.450Z,58.84
2019-05-16T20:42:27.182Z,59.68
2019-05-16T20:44:59.532Z,60.57
2019-05-16T20:47:33.190Z,60.87
2019-05-16T20:50:10.091Z,61.08
2019-05-16T20:52:43.499Z,60.30
2019-05-16T20:55:17.390Z,59.78
2019-05-16T20:57:50.433Z,60.37
2019-05-16T21:00:23.774Z,60.68
2019-05-16T21:02:57.368Z,60.68
2019-05-16T21:05:28.477Z,60.44
2019-05-16T21:08:00.021Z,60.38
2019-05-16T21:10:31.728Z,61.04
2019-05-16T21:13:06.852Z,61.20
2019-05-16T21:15:41.035Z,60.69
2019-05-16T21:18:13.263Z,60.80
2019-05-16T21:20:47.052Z,60.82
2019-05-16T21:23:21.457Z,59.55
2019-05-16T21:25:53.435Z,60.02
2019-05-16T21:28:26.671Z,61.04
2019-05-16T21:31:00.690Z,62.10
2019-05-16T21:33:36.245Z,62.60
2019-05-16T21:36:09.974Z,62.92
2019-05-16T21:38:42.017Z,62.37
2019-05-16T21:41:16.832Z,62.26
2019-05-16T21:43:51.358Z,63.11
2019-05-16T21:46:22.821Z,64.82
2019-05-16T21:48:56.724Z,67.52
2019-05-16T21:51:28.359Z,68.10
2019-05-16T21:54:00.636Z,69.01
2019-05-16T21:56:34.299Z,69.47
2019-05-16T21:59:09.812Z,70.36
2019-05-16T22:01:43.313Z,70.55
2019-05-16T22:04:16.071Z,70.83
2019-05-16T22:06:49.470Z,70.90
2019-05-16T22:09:21.514Z,71.27
2019-05-16T22:11:57.331Z,70.47
2019-05-16T22:14:52.845Z,70.07
2019-05-16T22:17:24.895Z,69.86
2019-05-16T22:20:19.362Z,70.08
2019-05-16T22:22:52.584Z,70.27
2019-05-16T22:25:27.263Z,70.71
2019-05-16T22:27:59.431Z,70.89
2019-05-16T22:30:33.815Z,70.02
2019-05-16T22:33:09.340Z,69.37
2019-05-16T22:35:43.114Z,69.27
2019-05-16T22:38:16.803Z,69.61
2019-05-16T22:40:51.007Z,70.30
2019-05-16T22:43:26.493Z,70.30
2019-05-16T22:45:57.935Z,69.68
2019-05-16T22:48:29.376Z,69.87
2019-05-16T22:51:07.181Z,70.33
2019-05-16T22:53:38.997Z,70.76
2019-05-16T22:56:10.877Z,71.08
2019-05-16T22:58:42.155Z,71.68
2019-05-16T23:01:14.023Z,72.12
2019-05-16T23:03:46.003Z,72.61
2019-05-16T23:06:20.535Z,74.62
2019-05-16T23:08:53.114Z,74.52
2019-05-16T23:11:27.001Z,75.50
2019-05-16T23:13:58.760Z,76.41
2019-05-16T23:16:33.145Z,77.93
2019-05-16T23:19:06.627Z,78.63
2019-05-16T23:21:38.340Z,80.00
2019-05-16T23:24:11.598Z,80.23
2019-05-16T23:26:43.195Z,80.97
2019-05-16T23:29:16.929Z,81.38
2019-05-16T23:31:50.855Z,81.57
2019-05-16T23:34:22.876Z,81.52
2019-05-16T23:36:57.026Z,81.52
2019-05-16T23:39:31.641Z,80.36
2019-05-16T23:42:06.238Z,79.52
2019-05-16T23:44:38.954Z,79.69
2019-05-16T23:47:12.567Z,79.65
2019-05-16T23:49:44.066Z,79.18
2019-05-16T23:52:17.075Z,79.80
2019-05-16T23:54:51.594Z,80.47
2019-05-16T23:57:23.670Z,81.03
2019-05-16T23:59:57.364Z,81.15
